createdAt,value
2022-09-07T00:02:25.149Z,24.66
2022-09-07T00:04:52.006Z,24.67
2022-09-07T00:07:19.143Z,24.67
2022-09-07T00:09:45.892Z,24.61
2022-09-07T00:12:12.571Z,24.69
2022-09-07T00:14:39.288Z,24.69
2022-09-07T00:17:06.028Z,24.69
2022-09-07T00:19:32.653Z,24.70
2022-09-07T00:21:59.397Z,24.71
2022-09-07T00:24:26.119Z,24.72
2022-09-07T00:26:55.541Z,24.71
2022-09-07T00:29:22.772Z,24.72
2022-09-07T00:31:49.521Z,24.71
2022-09-07T00:34:16.149Z,24.72
2022-09-07T00:36:43.276Z,24.60
2022-09-07T00:39:09.937Z,24.73
2022-09-07T00:41:36.645Z,24.72
2022-09-07T00:44:40.775Z,24.72
2022-09-07T00:47:10.761Z,24.72
2022-09-07T00:49:39.485Z,24.72
2022-09-07T00:52:08.183Z,24.73
2022-09-07T00:54:43.716Z,24.72
2022-09-07T00:57:10.986Z,24.67
2022-09-07T00:59:47.205Z,24.72
2022-09-07T01:02:17.368Z,24.73
2022-09-07T01:04:48.487Z,24.73
2022-09-07T01:07:15.245Z,24.73
2022-09-07T01:09:43.023Z,24.73
2022-09-07T01:12:09.664Z,24.73
2022-09-07T01:14:42.901Z,24.68
2022-09-07T01:17:30.857Z,24.74
2022-09-07T01:20:09.325Z,24.73
2022-09-07T01:23:00.817Z,24.72
2022-09-07T01:25:39.427Z,24.72
2022-09-07T01:28:22.736Z,24.71
2022-09-07T01:31:01.716Z,24.71
2022-09-07T01:33:37.340Z,24.72
2022-09-07T01:36:42.523Z,24.71
2022-09-07T01:39:09.483Z,24.71
2022-09-07T01:41:43.499Z,24.36
2022-09-07T01:44:15.031Z,24.71
2022-09-07T01:46:53.041Z,24.63
2022-09-07T01:49:45.989Z,24.72
2022-09-07T01:52:25.957Z,24.72
2022-09-07T01:55:02.544Z,24.72
2022-09-07T01:57:38.311Z,24.60
2022-09-07T02:00:12.564Z,24.72
2022-09-07T02:02:54.354Z,24.69
2022-09-07T02:05:33.718Z,24.72
2022-09-07T02:08:26.302Z,24.73
2022-09-07T02:11:02.261Z,24.73
2022-09-07T02:13:49.296Z,24.73
2022-09-07T02:16:23.873Z,24.73
2022-09-07T02:18:58.816Z,24.72
2022-09-07T02:21:34.812Z,24.73
2022-09-07T02:24:17.855Z,24.74
2022-09-07T02:26:49.110Z,24.73
2022-09-07T02:29:15.911Z,24.70
2022-09-07T02:31:42.932Z,24.73
2022-09-07T02:34:10.320Z,24.73
2022-09-07T02:36:44.407Z,24.73
2022-09-07T02:39:11.198Z,24.74
2022-09-07T02:41:40.955Z,24.73
2022-09-07T02:44:19.306Z,24.72
2022-09-07T02:46:57.156Z,24.73
2022-09-07T02:49:26.625Z,24.73
2022-09-07T02:52:19.374Z,24.72
2022-09-07T02:55:07.877Z,24.72
2022-09-07T02:58:02.469Z,24.71
2022-09-07T03:00:34.748Z,24.71
2022-09-07T03:03:20.764Z,24.69
2022-09-07T03:06:01.119Z,24.69
2022-09-07T03:08:39.709Z,24.69
2022-09-07T03:11:07.468Z,24.67
2022-09-07T03:16:02.210Z,24.67
2022-09-07T03:18:29.255Z,24.67
2022-09-07T03:20:55.941Z,24.66
2022-09-07T03:23:22.976Z,24.66
2022-09-07T03:25:49.753Z,24.65
2022-09-07T03:28:19.225Z,24.64
2022-09-07T03:30:47.417Z,24.63
2022-09-07T03:33:17.804Z,24.59
2022-09-07T03:38:14.216Z,24.62
2022-09-07T03:40:40.869Z,24.63
2022-09-07T03:43:07.645Z,24.62
2022-09-07T03:45:34.305Z,24.62
2022-09-07T03:48:00.944Z,24.63
2022-09-07T03:50:29.080Z,24.57
2022-09-07T03:52:55.600Z,24.63
2022-09-07T03:55:22.301Z,24.55
2022-09-07T03:57:48.949Z,24.60
2022-09-07T04:00:16.095Z,24.60
2022-09-07T04:02:42.702Z,24.60
2022-09-07T04:05:09.768Z,24.59
2022-09-07T04:07:36.551Z,24.59
2022-09-07T04:10:03.556Z,24.58
2022-09-07T04:12:30.173Z,24.46
2022-09-07T04:14:58.410Z,24.58
2022-09-07T04:17:25.020Z,24.57
2022-09-07T04:19:52.301Z,24.57
2022-09-07T04:22:18.853Z,24.57
2022-09-07T04:24:45.566Z,24.45
2022-09-07T04:27:12.828Z,24.56
2022-09-07T04:29:39.389Z,24.55
2022-09-07T04:32:05.960Z,24.54
2022-09-07T04:34:32.649Z,24.55
2022-09-07T04:36:59.218Z,24.55
2022-09-07T04:39:25.875Z,24.54
2022-09-07T04:41:53.067Z,24.55
2022-09-07T04:44:19.721Z,24.54
2022-09-07T04:46:46.344Z,24.55
2022-09-07T04:49:13.662Z,24.55
2022-09-07T04:51:42.534Z,24.55
2022-09-07T04:54:10.271Z,24.56
2022-09-07T04:56:36.872Z,24.56
2022-09-07T04:59:04.568Z,24.45
2022-09-07T05:01:31.505Z,24.57
2022-09-07T05:04:04.136Z,24.17
2022-09-07T05:06:30.908Z,24.56
2022-09-07T05:08:58.621Z,24.59
2022-09-07T05:11:29.432Z,24.58
2022-09-07T05:14:00.678Z,24.60
2022-09-07T05:16:28.493Z,24.60
2022-09-07T05:18:58.059Z,24.61
2022-09-07T05:21:27.461Z,24.63
2022-09-07T05:23:55.925Z,24.61
2022-09-07T05:26:24.284Z,24.63
2022-09-07T05:28:51.026Z,24.65
2022-09-07T05:31:20.622Z,24.66
2022-09-07T05:36:39.471Z,24.68
2022-09-07T05:39:07.580Z,24.69
2022-09-07T05:41:34.399Z,24.70
2022-09-07T05:46:47.675Z,24.73
2022-09-07T05:49:14.208Z,24.73
2022-09-07T05:51:41.143Z,24.74
2022-09-07T05:54:07.829Z,24.74
2022-09-07T05:56:36.279Z,24.74
2022-09-07T05:59:03.971Z,24.74
2022-09-07T06:01:31.501Z,24.72
2022-09-07T06:03:58.112Z,24.70
2022-09-07T06:06:24.788Z,24.69
2022-09-07T06:08:53.650Z,24.68
2022-09-07T06:11:24.715Z,24.66
2022-09-07T06:13:52.075Z,24.62
2022-09-07T06:16:19.696Z,24.65
2022-09-07T06:18:48.863Z,24.65
2022-09-07T06:21:19.616Z,24.65
2022-09-07T06:23:47.348Z,24.64
2022-09-07T06:26:16.640Z,24.65
2022-09-07T06:28:49.220Z,24.64
2022-09-07T06:31:19.114Z,24.66
2022-09-07T06:33:47.712Z,24.64
2022-09-07T06:36:22.985Z,24.66
2022-09-07T06:38:51.167Z,24.66
2022-09-07T06:44:07.321Z,24.43
2022-09-07T06:49:20.724Z,24.11
2022-09-07T06:51:47.492Z,24.13
2022-09-07T06:57:07.960Z,24.07
2022-09-07T06:59:35.377Z,24.06
2022-09-07T07:02:02.210Z,24.05
2022-09-07T07:04:28.876Z,24.06
2022-09-07T07:06:55.686Z,24.07
2022-09-07T07:09:22.394Z,24.09
2022-09-07T07:11:49.181Z,24.11
2022-09-07T07:14:16.408Z,24.14
2022-09-07T07:16:44.957Z,24.17
2022-09-07T07:19:11.874Z,24.23
2022-09-07T07:22:03.414Z,24.28
2022-09-07T07:24:25.179Z,24.33
2022-09-07T07:26:51.886Z,24.39
2022-09-07T07:29:18.937Z,24.45
2022-09-07T07:31:47.131Z,24.50
2022-09-07T07:34:15.146Z,24.55
2022-09-07T07:36:41.828Z,24.60
2022-09-07T07:41:58.637Z,24.68
2022-09-07T07:44:28.378Z,24.70
2022-09-07T07:46:55.660Z,24.71
2022-09-07T07:49:22.388Z,24.70
2022-09-07T07:54:37.256Z,24.61
2022-09-07T07:57:05.793Z,24.64
2022-09-07T07:59:32.655Z,24.73
2022-09-07T08:02:04.393Z,24.75
2022-09-07T08:04:35.103Z,24.64
2022-09-07T08:07:08.672Z,24.79
2022-09-07T08:09:37.279Z,24.82
2022-09-07T08:12:04.001Z,24.80
2022-09-07T08:14:30.613Z,24.86
2022-09-07T08:16:57.309Z,24.88
2022-09-07T08:19:23.899Z,24.89
2022-09-07T08:24:03.816Z,24.90
2022-09-07T08:26:30.549Z,24.90
2022-09-07T08:28:57.183Z,24.89
2022-09-07T08:31:23.762Z,24.91
2022-09-07T08:33:50.320Z,24.93
2022-09-07T08:36:19.777Z,24.95
2022-09-07T08:38:47.500Z,24.97
2022-09-07T08:41:49.712Z,24.99
2022-09-07T08:44:34.890Z,25.01
2022-09-07T08:47:19.933Z,25.02
2022-09-07T08:49:49.977Z,25.04
2022-09-07T08:52:21.603Z,25.04
2022-09-07T08:55:00.756Z,25.06
2022-09-07T08:57:31.183Z,25.07
2022-09-07T09:00:14.121Z,25.08
2022-09-07T09:05:53.568Z,25.11
2022-09-07T09:06:11.037Z,25.08
2022-09-07T09:08:32.626Z,25.12
2022-09-07T09:11:10.001Z,25.14
2022-09-07T09:14:13.627Z,25.14
2022-09-07T09:16:48.255Z,25.13
2022-09-07T09:19:42.507Z,25.15
2022-09-07T09:22:17.679Z,25.16
2022-09-07T09:24:49.019Z,25.17
2022-09-07T09:27:16.352Z,25.19
2022-09-07T09:29:42.945Z,25.15
2022-09-07T09:32:31.711Z,25.22
2022-09-07T09:35:13.788Z,25.23
2022-09-07T09:37:41.323Z,25.25
2022-09-07T09:40:20.323Z,25.27
2022-09-07T09:42:47.269Z,25.27
2022-09-07T09:45:21.311Z,25.29
2022-09-07T09:47:50.845Z,25.29
2022-09-07T09:53:43.173Z,25.33
2022-09-07T09:56:11.014Z,25.34
2022-09-07T10:01:35.133Z,25.35
2022-09-07T10:04:37.989Z,25.36
2022-09-07T10:07:28.216Z,25.36
2022-09-07T10:09:56.377Z,25.38
2022-09-07T10:12:33.387Z,25.33
2022-09-07T10:15:07.919Z,25.39
2022-09-07T10:17:38.668Z,25.40
2022-09-07T10:20:17.835Z,25.40
2022-09-07T10:22:51.345Z,25.40
2022-09-07T10:25:37.569Z,25.43
2022-09-07T10:28:11.368Z,25.43
2022-09-07T10:30:59.061Z,25.44
2022-09-07T10:36:59.966Z,25.46
2022-09-07T10:39:34.772Z,25.47
2022-09-07T10:42:26.328Z,25.48
2022-09-07T10:44:52.883Z,25.49
2022-09-07T10:47:35.035Z,25.50
2022-09-07T10:50:26.379Z,25.51
2022-09-07T10:53:39.137Z,25.52
2022-09-07T10:56:12.660Z,25.53
2022-09-07T10:59:08.635Z,25.53
2022-09-07T11:01:54.550Z,25.54
2022-09-07T11:04:31.367Z,25.55
2022-09-07T11:07:16.232Z,25.55
2022-09-07T11:09:58.648Z,25.57
2022-09-07T11:12:30.764Z,25.55
2022-09-07T11:15:03.373Z,25.59
2022-09-07T11:17:30.828Z,25.60
2022-09-07T11:20:24.410Z,25.61
2022-09-07T11:23:13.077Z,25.61
2022-09-07T11:26:01.476Z,25.62
2022-09-07T11:29:29.228Z,25.62
2022-09-07T11:31:47.680Z,25.63
2022-09-07T11:34:24.145Z,25.64
2022-09-07T11:36:58.742Z,25.65
2022-09-07T11:39:30.800Z,25.66
2022-09-07T11:45:22.908Z,25.68
2022-09-07T11:47:57.665Z,25.69
2022-09-07T11:50:24.440Z,25.69
2022-09-07T11:53:00.602Z,25.71
2022-09-07T11:55:32.861Z,25.72
2022-09-07T11:58:26.701Z,25.73
2022-09-07T12:01:21.732Z,25.74
2022-09-07T12:04:15.414Z,25.74
2022-09-07T12:07:05.981Z,25.76
2022-09-07T12:10:00.775Z,25.76
2022-09-07T12:13:04.981Z,25.75
2022-09-07T12:15:49.967Z,25.76
2022-09-07T12:18:50.803Z,25.77
2022-09-07T12:21:37.061Z,25.77
2022-09-07T12:24:04.200Z,25.72
2022-09-07T12:26:36.424Z,25.78
2022-09-07T12:29:06.241Z,25.78
2022-09-07T12:31:57.355Z,25.79
2022-09-07T12:34:33.817Z,25.80
2022-09-07T12:37:25.757Z,25.80
2022-09-07T12:40:29.551Z,25.81
2022-09-07T12:43:14.351Z,25.81
2022-09-07T12:45:41.617Z,25.81
2022-09-07T12:48:17.425Z,25.81
2022-09-07T12:51:06.137Z,25.81
2022-09-07T12:53:57.887Z,25.82
2022-09-07T12:56:30.476Z,25.82
2022-09-07T12:59:21.997Z,25.83
2022-09-07T13:02:03.170Z,25.83
2022-09-07T13:04:29.822Z,25.84
2022-09-07T13:07:21.024Z,25.84
2022-09-07T13:10:01.215Z,25.85
2022-09-07T13:15:41.516Z,25.88
2022-09-07T13:18:31.871Z,25.88
2022-09-07T13:21:07.325Z,25.90
2022-09-07T13:23:35.805Z,25.92
2022-09-07T13:26:05.148Z,25.92
2022-09-07T13:28:58.304Z,25.93
2022-09-07T13:31:54.484Z,25.93
2022-09-07T13:34:36.574Z,25.94
2022-09-07T13:37:13.337Z,25.93
2022-09-07T13:39:45.220Z,25.94
2022-09-07T13:42:17.763Z,25.94
2022-09-07T13:44:53.550Z,25.94
2022-09-07T13:47:20.585Z,25.93
2022-09-07T13:49:55.899Z,25.94
2022-09-07T13:52:35.464Z,25.94
2022-09-07T13:55:26.108Z,25.95
2022-09-07T13:58:25.073Z,25.94
2022-09-07T14:00:52.952Z,25.94
2022-09-07T14:03:21.233Z,25.95
2022-09-07T14:05:47.867Z,25.94
2022-09-07T14:08:26.365Z,25.95
2022-09-07T14:10:53.189Z,25.94
2022-09-07T14:13:19.736Z,25.95
2022-09-07T14:15:49.045Z,25.64
2022-09-07T14:18:28.925Z,25.95
2022-09-07T14:20:56.576Z,25.95
2022-09-07T14:23:30.511Z,25.96
2022-09-07T14:26:24.937Z,25.95
2022-09-07T14:28:54.505Z,25.94
2022-09-07T14:31:23.531Z,25.95
2022-09-07T14:33:53.629Z,25.85
2022-09-07T14:36:42.329Z,25.97
2022-09-07T14:39:12.544Z,25.98
2022-09-07T14:41:41.328Z,25.93
2022-09-07T14:44:27.445Z,25.97
2022-09-07T14:46:56.702Z,25.98
2022-09-07T14:49:24.227Z,25.99
2022-09-07T14:51:53.636Z,25.98
2022-09-07T14:54:23.508Z,25.98
2022-09-07T14:57:12.025Z,25.98
2022-09-07T14:59:41.217Z,25.99
2022-09-07T15:02:22.054Z,25.99
2022-09-07T15:05:09.808Z,25.99
2022-09-07T15:07:40.340Z,25.99
2022-09-07T15:10:28.729Z,25.98
2022-09-07T15:12:58.471Z,25.99
2022-09-07T15:15:28.265Z,25.99
2022-09-07T15:18:01.820Z,25.98
2022-09-07T15:20:37.089Z,25.99
2022-09-07T15:23:05.509Z,25.99
2022-09-07T15:25:32.607Z,25.99
2022-09-07T15:28:00.025Z,25.99
2022-09-07T15:30:27.344Z,25.99
2022-09-07T15:32:57.306Z,25.99
2022-09-07T15:35:24.717Z,26.00
2022-09-07T15:38:59.431Z,26.00
2022-09-07T15:41:10.602Z,25.99
2022-09-07T15:43:32.949Z,25.91
2022-09-07T15:45:59.674Z,26.00
2022-09-07T15:48:26.472Z,26.00
2022-09-07T15:51:03.470Z,26.01
2022-09-07T15:56:20.130Z,26.01
2022-09-07T15:58:52.072Z,26.01
2022-09-07T16:04:05.439Z,26.01
2022-09-07T16:06:32.462Z,26.01
2022-09-07T16:08:59.401Z,26.02
2022-09-07T16:11:27.224Z,26.02
2022-09-07T16:14:01.785Z,26.02
2022-09-07T16:19:20.499Z,26.00
2022-09-07T16:21:47.571Z,25.99
2022-09-07T16:24:14.145Z,25.90
2022-09-07T16:26:40.704Z,25.99
2022-09-07T16:29:07.915Z,25.99
2022-09-07T16:31:35.063Z,25.99
2022-09-07T16:34:03.258Z,25.93
2022-09-07T16:36:30.674Z,25.98
2022-09-07T16:38:59.693Z,25.97
2022-09-07T16:41:31.744Z,25.96
2022-09-07T16:43:58.929Z,25.96
2022-09-07T16:46:27.835Z,25.95
2022-09-07T16:48:54.685Z,25.94
2022-09-07T16:51:22.735Z,25.94
2022-09-07T16:53:51.612Z,25.94
2022-09-07T16:56:20.499Z,25.95
2022-09-07T16:58:52.558Z,25.96
2022-09-07T17:01:23.143Z,25.87
2022-09-07T17:03:50.740Z,25.96
2022-09-07T17:06:20.284Z,25.95
2022-09-07T17:08:47.456Z,25.95
2022-09-07T17:11:17.237Z,25.94
2022-09-07T17:13:44.620Z,25.95
2022-09-07T17:16:13.975Z,25.95
2022-09-07T17:21:33.176Z,25.96
2022-09-07T17:24:01.689Z,25.96
2022-09-07T17:26:30.448Z,25.92
2022-09-07T17:29:00.397Z,25.87
2022-09-07T17:34:17.830Z,25.83
2022-09-07T17:36:44.498Z,25.80
2022-09-07T17:39:16.285Z,25.79
2022-09-07T17:41:45.115Z,25.72
2022-09-07T17:44:11.903Z,25.76
2022-09-07T17:46:38.857Z,25.76
2022-09-07T17:49:09.546Z,25.68
2022-09-07T17:51:36.305Z,25.73
2022-09-07T17:54:12.652Z,25.73
2022-09-07T17:56:40.923Z,25.62
2022-09-07T18:01:56.956Z,25.70
2022-09-07T18:04:24.003Z,25.70
2022-09-07T18:06:51.075Z,25.69
2022-09-07T18:09:19.539Z,25.37
2022-09-07T18:11:47.564Z,25.67
2022-09-07T18:14:15.204Z,25.67
2022-09-07T18:16:44.176Z,25.66
2022-09-07T18:19:12.343Z,25.67
2022-09-07T18:21:41.903Z,25.66
2022-09-07T18:24:16.834Z,25.69
2022-09-07T18:26:49.520Z,25.73
2022-09-07T18:29:28.173Z,25.77
2022-09-07T18:31:57.142Z,25.78
2022-09-07T18:34:23.792Z,25.78
2022-09-07T18:36:50.714Z,25.78
2022-09-07T18:39:17.246Z,25.78
2022-09-07T18:41:44.140Z,25.79
2022-09-07T18:46:57.491Z,25.79
2022-09-07T18:54:38.864Z,25.74
2022-09-07T18:57:06.680Z,25.73
2022-09-07T18:59:33.798Z,25.66
2022-09-07T19:02:04.375Z,25.72
2022-09-07T19:07:20.889Z,25.79
2022-09-07T19:09:48.335Z,25.77
2022-09-07T19:12:15.643Z,25.74
2022-09-07T19:14:42.379Z,25.73
2022-09-07T19:17:10.960Z,25.71
2022-09-07T19:19:39.938Z,25.71
2022-09-07T19:22:06.735Z,25.74
2022-09-07T19:24:33.510Z,25.78
2022-09-07T19:27:02.597Z,25.80
2022-09-07T19:29:29.357Z,25.82
2022-09-07T19:32:06.636Z,25.82
2022-09-07T19:36:46.493Z,25.82
2022-09-07T19:39:13.105Z,25.85
2022-09-07T19:41:45.017Z,25.81
2022-09-07T19:44:11.586Z,25.89
2022-09-07T19:46:38.146Z,25.91
2022-09-07T19:49:05.601Z,25.90
2022-09-07T19:51:36.608Z,25.90
2022-09-07T19:54:03.486Z,25.92
2022-09-07T19:56:29.985Z,25.93
2022-09-07T19:58:56.959Z,25.93
2022-09-07T20:01:25.352Z,25.92
2022-09-07T20:04:00.889Z,25.92
2022-09-07T20:06:28.077Z,25.91
2022-09-07T20:08:56.477Z,25.90
2022-09-07T20:11:23.122Z,25.90
2022-09-07T20:13:49.616Z,25.90
2022-09-07T20:16:19.088Z,25.90
2022-09-07T20:21:06.353Z,25.84
2022-09-07T20:23:34.381Z,25.84
2022-09-07T20:26:06.193Z,25.84
2022-09-07T20:28:34.406Z,25.84
2022-09-07T20:31:08.218Z,25.85
2022-09-07T20:33:35.850Z,25.85
2022-09-07T20:36:04.274Z,25.86
2022-09-07T20:38:30.820Z,25.86
2022-09-07T20:41:00.715Z,25.86
2022-09-07T20:43:27.517Z,25.83
2022-09-07T20:45:58.186Z,25.88
2022-09-07T20:48:25.100Z,25.87
2022-09-07T20:50:59.187Z,25.89
2022-09-07T20:53:26.696Z,25.89
2022-09-07T20:56:00.780Z,25.90
2022-09-07T20:58:27.800Z,25.85
2022-09-07T21:00:54.471Z,25.91
2022-09-07T21:03:21.560Z,25.90
2022-09-07T21:05:48.517Z,25.90
2022-09-07T21:08:16.764Z,25.92
2022-09-07T21:10:45.641Z,25.92
2022-09-07T21:13:13.473Z,25.91
2022-09-07T21:15:41.699Z,25.90
2022-09-07T21:20:25.704Z,25.85
2022-09-07T21:22:52.402Z,25.86
2022-09-07T21:25:18.885Z,25.82
2022-09-07T21:27:45.495Z,25.89
2022-09-07T21:30:12.519Z,25.91
2022-09-07T21:32:40.347Z,25.91
2022-09-07T21:35:07.748Z,25.92
2022-09-07T21:37:36.507Z,25.92
2022-09-07T21:40:05.752Z,25.92
2022-09-07T21:42:32.926Z,25.93
2022-09-07T21:44:59.615Z,25.92
2022-09-07T21:47:26.252Z,25.93
2022-09-07T21:49:52.835Z,25.92
2022-09-07T21:54:48.768Z,25.83
2022-09-07T21:57:15.776Z,25.74
2022-09-07T22:01:59.288Z,25.72
2022-09-07T22:04:26.285Z,25.70
2022-09-07T22:06:52.777Z,25.58
2022-09-07T22:09:19.368Z,25.66
2022-09-07T22:11:46.367Z,25.65
2022-09-07T22:14:14.372Z,25.65
2022-09-07T22:16:40.913Z,25.63
2022-09-07T22:19:07.748Z,25.62
2022-09-07T22:24:02.983Z,25.61
2022-09-07T22:26:32.321Z,25.60
2022-09-07T22:28:59.344Z,25.49
2022-09-07T22:31:34.251Z,25.57
2022-09-07T22:34:05.606Z,25.57
2022-09-07T22:36:34.987Z,25.57
2022-09-07T22:39:05.687Z,25.55
2022-09-07T22:41:34.379Z,25.56
2022-09-07T22:44:00.952Z,25.55
2022-09-07T22:46:30.207Z,25.54
2022-09-07T22:48:58.560Z,25.54
2022-09-07T22:51:26.625Z,25.44
2022-09-07T22:53:54.288Z,25.49
2022-09-07T22:56:32.591Z,25.53
2022-09-07T23:01:23.483Z,25.51
2022-09-07T23:06:23.535Z,25.41
2022-09-07T23:08:51.297Z,25.43
2022-09-07T23:11:18.129Z,25.51
2022-09-07T23:13:45.069Z,25.51
2022-09-07T23:16:12.197Z,25.52
2022-09-07T23:18:40.817Z,25.41
2022-09-07T23:21:08.347Z,25.52
2022-09-07T23:23:35.049Z,25.52
2022-09-07T23:26:03.587Z,25.51
2022-09-07T23:28:31.018Z,25.52
2022-09-07T23:30:57.970Z,25.52
2022-09-07T23:33:26.196Z,25.50
2022-09-07T23:36:01.274Z,25.51
2022-09-07T23:40:45.132Z,25.52
2022-09-07T23:43:12.701Z,25.51
2022-09-07T23:45:39.568Z,25.51
2022-09-07T23:48:06.160Z,25.51
2022-09-07T23:50:33.679Z,25.50
2022-09-07T23:53:00.525Z,25.51
2022-09-07T23:55:27.023Z,25.51
2022-09-07T23:57:53.669Z,25.17
